Terminal Aerodrome Forecast
Issued by NWS Denver/Boulder, CO

Home | Current Version | Previous Version | Text Only | Print | Product List | Glossary On
Versions: 1 2 3 4 5 6 7 8 9 10 11 12 13 14 15 16 17 18 19 20 21 22 23 24 25 26 27 28 29 30 31 32 33 34 35 36 37 38 39 40 41 42 43 44 45 46 47 48 49 50
000
FTUS45 KBOU 222340
TAFDEN
TAF
KDEN 222340Z 2300/2406 23012KT P6SM VCSH SCT035 OVC090
      TEMPO 2302/2306 VRB15G25KT 4SM TSRA BKN035CB
     FM230600 24007KT P6SM SCT050 OVC080
     FM230800 24007KT P6SM SCT080 BKN120
     FM231500 22010KT P6SM SCT080 SCT120
     FM231900 13007KT P6SM SCT080 BKN120
     FM232200 06008KT P6SM VCSH BKN090 BKN120
     FM240100 35010KT P6SM VCSH BKN060 BKN120=

USA.gov is the U.S. government's official web portal to all federal, state and local government web resources and services.